sensor_id;sensor_type;location;lat;lon;timestamp;P1;durP1;ratioP1;P2;durP2;ratioP2
14907;SDS011;7545;52.092;7.006;2024-03-23T00:52:45;10.45;;;4.35;;
14907;SDS011;7545;52.092;7.006;2024-03-23T00:55:10;9.40;;;4.18;;
14907;SDS011;7545;52.092;7.006;2024-03-23T00:57:36;15.95;;;5.35;;
14907;SDS011;7545;52.092;7.006;2024-03-23T01:00:01;9.95;;;4.63;;
14907;SDS011;7545;52.092;7.006;2024-03-23T01:02:27;14.13;;;4.97;;
14907;SDS011;7545;52.092;7.006;2024-03-23T01:04:53;9.05;;;3.88;;
14907;SDS011;7545;52.092;7.006;2024-03-23T01:07:18;13.27;;;5.75;;
14907;SDS011;7545;52.092;7.006;2024-03-23T01:09:44;15.10;;;4.82;;
14907;SDS011;7545;52.092;7.006;2024-03-23T01:12:10;11.55;;;4.47;;
14907;SDS011;7545;52.092;7.006;2024-03-23T01:14:35;9.07;;;5.10;;
14907;SDS011;7545;52.092;7.006;2024-03-23T01:17:01;13.88;;;5.75;;
14907;SDS011;7545;52.092;7.006;2024-03-23T01:19:26;12.68;;;4.80;;
14907;SDS011;7545;52.092;7.006;2024-03-23T01:21:52;15.02;;;5.05;;
14907;SDS011;7545;52.092;7.006;2024-03-23T01:24:18;12.02;;;4.78;;
14907;SDS011;7545;52.092;7.006;2024-03-23T01:26:43;8.80;;;4.63;;
14907;SDS011;7545;52.092;7.006;2024-03-23T01:29:09;14.98;;;5.85;;
14907;SDS011;7545;52.092;7.006;2024-03-23T01:31:34;16.42;;;5.35;;
14907;SDS011;7545;52.092;7.006;2024-03-23T01:34:00;16.17;;;4.93;;
14907;SDS011;7545;52.092;7.006;2024-03-23T01:36:26;16.45;;;5.60;;
14907;SDS011;7545;52.092;7.006;2024-03-23T01:38:51;15.35;;;5.28;;
14907;SDS011;7545;52.092;7.006;2024-03-23T01:41:17;10.38;;;5.20;;
14907;SDS011;7545;52.092;7.006;2024-03-23T01:43:42;9.98;;;4.53;;
14907;SDS011;7545;52.092;7.006;2024-03-23T01:46:08;11.80;;;4.97;;
14907;SDS011;7545;52.092;7.006;2024-03-23T01:48:34;12.15;;;5.25;;
14907;SDS011;7545;52.092;7.006;2024-03-23T01:50:59;12.95;;;5.68;;
14907;SDS011;7545;52.092;7.006;2024-03-23T01:53:25;12.43;;;5.05;;
14907;SDS011;7545;52.092;7.006;2024-03-23T01:55:51;11.10;;;4.65;;
14907;SDS011;7545;52.092;7.006;2024-03-23T01:58:16;14.00;;;5.53;;
14907;SDS011;7545;52.092;7.006;2024-03-23T02:00:42;12.40;;;5.47;;
14907;SDS011;7545;52.092;7.006;2024-03-23T02:03:23;16.65;;;5.47;;
14907;SDS011;7545;52.092;7.006;2024-03-23T02:05:50;13.20;;;5.75;;
14907;SDS011;7545;52.092;7.006;2024-03-23T02:08:17;17.33;;;5.93;;
14907;SDS011;7545;52.092;7.006;2024-03-23T02:10:45;10.45;;;5.03;;
14907;SDS011;7545;52.092;7.006;2024-03-23T02:13:10;11.27;;;5.45;;
14907;SDS011;7545;52.092;7.006;2024-03-23T02:15:36;19.90;;;5.57;;
14907;SDS011;7545;52.092;7.006;2024-03-23T02:18:02;11.90;;;5.57;;
14907;SDS011;7545;52.092;7.006;2024-03-23T02:20:27;16.27;;;5.25;;
14907;SDS011;7545;52.092;7.006;2024-03-23T02:22:53;9.50;;;5.57;;
14907;SDS011;7545;52.092;7.006;2024-03-23T02:25:19;15.13;;;5.90;;
14907;SDS011;7545;52.092;7.006;2024-03-23T02:27:44;19.13;;;6.13;;
14907;SDS011;7545;52.092;7.006;2024-03-23T02:30:10;13.40;;;5.75;;
14907;SDS011;7545;52.092;7.006;2024-03-23T02:32:35;13.13;;;5.53;;
14907;SDS011;7545;52.092;7.006;2024-03-23T02:35:01;10.98;;;4.93;;
14907;SDS011;7545;52.092;7.006;2024-03-23T02:37:27;18.65;;;5.88;;
14907;SDS011;7545;52.092;7.006;2024-03-23T02:39:52;13.45;;;6.50;;
14907;SDS011;7545;52.092;7.006;2024-03-23T02:42:18;14.55;;;5.82;;
14907;SDS011;7545;52.092;7.006;2024-03-23T02:44:44;14.52;;;5.40;;
14907;SDS011;7545;52.092;7.006;2024-03-23T02:47:10;12.25;;;5.25;;
14907;SDS011;7545;52.092;7.006;2024-03-23T02:49:35;12.98;;;5.72;;
14907;SDS011;7545;52.092;7.006;2024-03-23T02:52:01;12.52;;;6.38;;
14907;SDS011;7545;52.092;7.006;2024-03-23T02:54:26;16.83;;;5.00;;
14907;SDS011;7545;52.092;7.006;2024-03-23T02:56:52;12.73;;;5.20;;
14907;SDS011;7545;52.092;7.006;2024-03-23T02:59:17;14.35;;;5.60;;
14907;SDS011;7545;52.092;7.006;2024-03-23T03:01:43;10.05;;;5.75;;
14907;SDS011;7545;52.092;7.006;2024-03-23T03:04:08;11.80;;;5.63;;
14907;SDS011;7545;52.092;7.006;2024-03-23T03:06:34;15.67;;;5.17;;
14907;SDS011;7545;52.092;7.006;2024-03-23T03:09:00;15.30;;;5.88;;
14907;SDS011;7545;52.092;7.006;2024-03-23T03:11:25;13.55;;;5.65;;
14907;SDS011;7545;52.092;7.006;2024-03-23T03:13:51;13.65;;;5.55;;
14907;SDS011;7545;52.092;7.006;2024-03-23T03:16:17;15.30;;;6.95;;
14907;SDS011;7545;52.092;7.006;2024-03-23T03:18:42;12.57;;;5.70;;
14907;SDS011;7545;52.092;7.006;2024-03-23T03:21:08;14.32;;;5.75;;
14907;SDS011;7545;52.092;7.006;2024-03-23T03:23:36;16.33;;;6.28;;
14907;SDS011;7545;52.092;7.006;2024-03-23T03:26:02;19.07;;;6.67;;
14907;SDS011;7545;52.092;7.006;2024-03-23T03:28:28;14.83;;;5.37;;
14907;SDS011;7545;52.092;7.006;2024-03-23T03:30:56;21.77;;;6.30;;
14907;SDS011;7545;52.092;7.006;2024-03-23T03:33:22;12.65;;;5.57;;
14907;SDS011;7545;52.092;7.006;2024-03-23T03:35:47;17.60;;;6.13;;
14907;SDS011;7545;52.092;7.006;2024-03-23T03:38:13;14.95;;;6.03;;
14907;SDS011;7545;52.092;7.006;2024-03-23T03:40:38;16.43;;;6.97;;
14907;SDS011;7545;52.092;7.006;2024-03-23T03:43:04;15.40;;;6.15;;
14907;SDS011;7545;52.092;7.006;2024-03-23T03:45:29;17.27;;;7.18;;
14907;SDS011;7545;52.092;7.006;2024-03-23T03:47:55;15.97;;;5.43;;
14907;SDS011;7545;52.092;7.006;2024-03-23T03:50:22;18.97;;;6.63;;
14907;SDS011;7545;52.092;7.006;2024-03-23T03:52:47;16.30;;;6.20;;
14907;SDS011;7545;52.092;7.006;2024-03-23T03:55:13;15.20;;;6.13;;
14907;SDS011;7545;52.092;7.006;2024-03-23T03:57:39;16.07;;;6.63;;
14907;SDS011;7545;52.092;7.006;2024-03-23T04:00:05;13.00;;;5.25;;
14907;SDS011;7545;52.092;7.006;2024-03-23T04:02:32;12.52;;;5.88;;
14907;SDS011;7545;52.092;7.006;2024-03-23T04:04:57;21.40;;;6.67;;
14907;SDS011;7545;52.092;7.006;2024-03-23T04:07:23;11.60;;;6.20;;
14907;SDS011;7545;52.092;7.006;2024-03-23T04:09:48;18.37;;;6.13;;
14907;SDS011;7545;52.092;7.006;2024-03-23T04:12:14;14.77;;;6.20;;
14907;SDS011;7545;52.092;7.006;2024-03-23T04:14:40;19.77;;;6.20;;
14907;SDS011;7545;52.092;7.006;2024-03-23T04:17:06;17.15;;;6.22;;
14907;SDS011;7545;52.092;7.006;2024-03-23T04:19:32;18.10;;;5.97;;
14907;SDS011;7545;52.092;7.006;2024-03-23T04:21:58;11.77;;;5.30;;
14907;SDS011;7545;52.092;7.006;2024-03-23T04:24:23;13.67;;;6.87;;
14907;SDS011;7545;52.092;7.006;2024-03-23T04:26:51;17.47;;;6.17;;
14907;SDS011;7545;52.092;7.006;2024-03-23T04:29:16;18.17;;;6.67;;
14907;SDS011;7545;52.092;7.006;2024-03-23T04:31:42;12.63;;;5.63;;
14907;SDS011;7545;52.092;7.006;2024-03-23T04:34:07;22.87;;;7.37;;
14907;SDS011;7545;52.092;7.006;2024-03-23T04:36:33;21.10;;;7.17;;
14907;SDS011;7545;52.092;7.006;2024-03-23T04:38:59;16.97;;;7.27;;
14907;SDS011;7545;52.092;7.006;2024-03-23T04:41:25;15.20;;;6.53;;
14907;SDS011;7545;52.092;7.006;2024-03-23T04:43:51;18.67;;;6.70;;
14907;SDS011;7545;52.092;7.006;2024-03-23T04:46:16;10.67;;;6.43;;
14907;SDS011;7545;52.092;7.006;2024-03-23T04:48:42;17.57;;;7.67;;
14907;SDS011;7545;52.092;7.006;2024-03-23T04:51:09;21.10;;;7.10;;
14907;SDS011;7545;52.092;7.006;2024-03-23T04:53:37;16.90;;;6.80;;
14907;SDS011;7545;52.092;7.006;2024-03-23T04:56:03;18.97;;;7.13;;
14907;SDS011;7545;52.092;7.006;2024-03-23T04:58:29;22.53;;;8.53;;
14907;SDS011;7545;52.092;7.006;2024-03-23T05:00:55;21.60;;;8.87;;
14907;SDS011;7545;52.092;7.006;2024-03-23T05:03:21;19.23;;;7.77;;
14907;SDS011;7545;52.092;7.006;2024-03-23T05:05:48;19.67;;;9.17;;
14907;SDS011;7545;52.092;7.006;2024-03-23T05:08:14;20.10;;;8.60;;
14907;SDS011;7545;52.092;7.006;2024-03-23T05:10:41;18.63;;;8.13;;
14907;SDS011;7545;52.092;7.006;2024-03-23T05:13:09;19.80;;;8.07;;
14907;SDS011;7545;52.092;7.006;2024-03-23T05:15:35;24.33;;;8.57;;
14907;SDS011;7545;52.092;7.006;2024-03-23T05:18:00;15.43;;;8.10;;
14907;SDS011;7545;52.092;7.006;2024-03-23T05:20:26;18.90;;;8.67;;
14907;SDS011;7545;52.092;7.006;2024-03-23T05:22:52;15.63;;;8.27;;
14907;SDS011;7545;52.092;7.006;2024-03-23T05:25:18;20.07;;;9.50;;
14907;SDS011;7545;52.092;7.006;2024-03-23T05:27:43;18.90;;;8.53;;
14907;SDS011;7545;52.092;7.006;2024-03-23T05:30:09;20.97;;;9.17;;
14907;SDS011;7545;52.092;7.006;2024-03-23T05:32:35;19.60;;;8.53;;
14907;SDS011;7545;52.092;7.006;2024-03-23T05:35:01;20.90;;;9.97;;
14907;SDS011;7545;52.092;7.006;2024-03-23T05:37:27;15.53;;;8.47;;
14907;SDS011;7545;52.092;7.006;2024-03-23T05:39:52;19.57;;;8.07;;
14907;SDS011;7545;52.092;7.006;2024-03-23T05:42:18;13.53;;;7.73;;
14907;SDS011;7545;52.092;7.006;2024-03-23T05:44:44;14.73;;;8.20;;
14907;SDS011;7545;52.092;7.006;2024-03-23T05:47:10;15.90;;;8.20;;
14907;SDS011;7545;52.092;7.006;2024-03-23T05:49:37;15.80;;;8.00;;
14907;SDS011;7545;52.092;7.006;2024-03-23T05:52:02;14.53;;;8.10;;
14907;SDS011;7545;52.092;7.006;2024-03-23T05:54:29;13.93;;;6.87;;
14907;SDS011;7545;52.092;7.006;2024-03-23T05:56:55;17.37;;;7.50;;
14907;SDS011;7545;52.092;7.006;2024-03-23T05:59:20;14.17;;;7.77;;
14907;SDS011;7545;52.092;7.006;2024-03-23T06:01:47;14.40;;;7.13;;
14907;SDS011;7545;52.092;7.006;2024-03-23T06:04:12;19.93;;;7.57;;
14907;SDS011;7545;52.092;7.006;2024-03-23T06:06:38;11.17;;;7.33;;
14907;SDS011;7545;52.092;7.006;2024-03-23T06:09:04;12.30;;;6.67;;
14907;SDS011;7545;52.092;7.006;2024-03-23T06:11:30;20.60;;;8.13;;
14907;SDS011;7545;52.092;7.006;2024-03-23T06:13:56;16.50;;;7.27;;
14907;SDS011;7545;52.092;7.006;2024-03-23T06:16:21;13.70;;;7.33;;
14907;SDS011;7545;52.092;7.006;2024-03-23T06:18:52;14.23;;;7.00;;
14907;SDS011;7545;52.092;7.006;2024-03-23T06:21:18;14.57;;;6.43;;
14907;SDS011;7545;52.092;7.006;2024-03-23T06:23:44;12.67;;;7.47;;
14907;SDS011;7545;52.092;7.006;2024-03-23T06:26:16;11.00;;;7.23;;
14907;SDS011;7545;52.092;7.006;2024-03-23T06:28:48;15.23;;;6.63;;
14907;SDS011;7545;52.092;7.006;2024-03-23T06:31:14;15.93;;;7.03;;
14907;SDS011;7545;52.092;7.006;2024-03-23T06:33:39;14.30;;;7.27;;
14907;SDS011;7545;52.092;7.006;2024-03-23T06:36:07;14.47;;;7.03;;
14907;SDS011;7545;52.092;7.006;2024-03-23T06:38:34;18.23;;;6.67;;
14907;SDS011;7545;52.092;7.006;2024-03-23T06:41:02;17.50;;;5.77;;
14907;SDS011;7545;52.092;7.006;2024-03-23T06:43:28;20.33;;;8.00;;
14907;SDS011;7545;52.092;7.006;2024-03-23T06:45:55;11.77;;;5.97;;
14907;SDS011;7545;52.092;7.006;2024-03-23T06:48:21;13.10;;;6.07;;
14907;SDS011;7545;52.092;7.006;2024-03-23T06:50:47;17.20;;;7.23;;
14907;SDS011;7545;52.092;7.006;2024-03-23T06:53:13;13.87;;;6.27;;
14907;SDS011;7545;52.092;7.006;2024-03-23T06:55:39;16.63;;;6.20;;
14907;SDS011;7545;52.092;7.006;2024-03-23T06:58:05;13.70;;;6.40;;
14907;SDS011;7545;52.092;7.006;2024-03-23T07:00:31;10.67;;;5.40;;
14907;SDS011;7545;52.092;7.006;2024-03-23T07:03:00;13.33;;;5.97;;
14907;SDS011;7545;52.092;7.006;2024-03-23T07:05:25;13.80;;;6.27;;
14907;SDS011;7545;52.092;7.006;2024-03-23T07:07:51;8.40;;;5.10;;
14907;SDS011;7545;52.092;7.006;2024-03-23T07:10:16;15.80;;;5.17;;
14907;SDS011;7545;52.092;7.006;2024-03-23T07:12:42;15.20;;;5.37;;
14907;SDS011;7545;52.092;7.006;2024-03-23T07:15:08;12.97;;;6.00;;
14907;SDS011;7545;52.092;7.006;2024-03-23T07:17:34;13.10;;;5.93;;
14907;SDS011;7545;52.092;7.006;2024-03-23T07:20:00;14.00;;;4.97;;
14907;SDS011;7545;52.092;7.006;2024-03-23T07:22:32;11.33;;;4.10;;
14907;SDS011;7545;52.092;7.006;2024-03-23T07:25:00;8.33;;;4.80;;
14907;SDS011;7545;52.092;7.006;2024-03-23T07:27:26;9.27;;;4.07;;
14907;SDS011;7545;52.092;7.006;2024-03-23T07:29:52;15.93;;;5.03;;
14907;SDS011;7545;52.092;7.006;2024-03-23T07:32:17;8.40;;;4.20;;
14907;SDS011;7545;52.092;7.006;2024-03-23T07:34:43;10.00;;;3.67;;
14907;SDS011;7545;52.092;7.006;2024-03-23T07:37:09;13.50;;;4.13;;
14907;SDS011;7545;52.092;7.006;2024-03-23T07:39:35;9.67;;;3.50;;
14907;SDS011;7545;52.092;7.006;2024-03-23T07:42:01;7.23;;;4.00;;
14907;SDS011;7545;52.092;7.006;2024-03-23T07:44:27;9.67;;;3.33;;
14907;SDS011;7545;52.092;7.006;2024-03-23T07:46:52;14.15;;;3.35;;
14907;SDS011;7545;52.092;7.006;2024-03-23T07:49:18;8.33;;;3.47;;
14907;SDS011;7545;52.092;7.006;2024-03-23T07:51:43;12.27;;;3.83;;
14907;SDS011;7545;52.092;7.006;2024-03-23T07:54:09;10.40;;;3.23;;
14907;SDS011;7545;52.092;7.006;2024-03-23T07:56:35;8.33;;;3.57;;
14907;SDS011;7545;52.092;7.006;2024-03-23T07:59:01;7.87;;;3.07;;
14907;SDS011;7545;52.092;7.006;2024-03-23T08:01:28;10.40;;;3.37;;
14907;SDS011;7545;52.092;7.006;2024-03-23T08:03:54;7.83;;;2.70;;
14907;SDS011;7545;52.092;7.006;2024-03-23T08:06:20;8.13;;;2.80;;
14907;SDS011;7545;52.092;7.006;2024-03-23T08:08:47;12.02;;;2.83;;
14907;SDS011;7545;52.092;7.006;2024-03-23T08:11:15;10.00;;;2.88;;
14907;SDS011;7545;52.092;7.006;2024-03-23T08:13:41;10.40;;;3.27;;
14907;SDS011;7545;52.092;7.006;2024-03-23T08:16:09;10.13;;;2.70;;
14907;SDS011;7545;52.092;7.006;2024-03-23T08:18:35;11.18;;;3.40;;
14907;SDS011;7545;52.092;7.006;2024-03-23T08:21:02;9.23;;;3.50;;
14907;SDS011;7545;52.092;7.006;2024-03-23T08:23:29;7.40;;;2.57;;
14907;SDS011;7545;52.092;7.006;2024-03-23T08:25:59;6.67;;;2.70;;
14907;SDS011;7545;52.092;7.006;2024-03-23T08:28:25;10.93;;;3.55;;
14907;SDS011;7545;52.092;7.006;2024-03-23T08:30:54;13.73;;;2.80;;
14907;SDS011;7545;52.092;7.006;2024-03-23T08:33:21;10.80;;;2.80;;
14907;SDS011;7545;52.092;7.006;2024-03-23T08:38:21;6.87;;;2.90;;
14907;SDS011;7545;52.092;7.006;2024-03-23T08:40:47;8.20;;;3.03;;
14907;SDS011;7545;52.092;7.006;2024-03-23T08:43:13;9.70;;;2.23;;
14907;SDS011;7545;52.092;7.006;2024-03-23T08:45:38;12.23;;;2.30;;
14907;SDS011;7545;52.092;7.006;2024-03-23T08:48:04;9.90;;;2.92;;
14907;SDS011;7545;52.092;7.006;2024-03-23T08:50:30;6.50;;;2.08;;
14907;SDS011;7545;52.092;7.006;2024-03-23T08:52:55;6.87;;;2.63;;
14907;SDS011;7545;52.092;7.006;2024-03-23T08:55:21;3.60;;;2.17;;
14907;SDS011;7545;52.092;7.006;2024-03-23T08:57:47;7.35;;;2.40;;
14907;SDS011;7545;52.092;7.006;2024-03-23T09:00:12;10.80;;;2.53;;
14907;SDS011;7545;52.092;7.006;2024-03-23T09:02:39;11.50;;;2.95;;
14907;SDS011;7545;52.092;7.006;2024-03-23T09:05:05;5.93;;;2.78;;
14907;SDS011;7545;52.092;7.006;2024-03-23T09:07:31;6.22;;;2.80;;
14907;SDS011;7545;52.092;7.006;2024-03-23T09:09:56;5.53;;;2.28;;
14907;SDS011;7545;52.092;7.006;2024-03-23T09:12:22;8.10;;;2.53;;
14907;SDS011;7545;52.092;7.006;2024-03-23T09:14:49;8.23;;;2.42;;
14907;SDS011;7545;52.092;7.006;2024-03-23T09:17:18;9.15;;;2.50;;
14907;SDS011;7545;52.092;7.006;2024-03-23T09:19:44;10.82;;;2.85;;
14907;SDS011;7545;52.092;7.006;2024-03-23T09:22:09;5.43;;;2.70;;
14907;SDS011;7545;52.092;7.006;2024-03-23T09:24:35;5.32;;;2.15;;
14907;SDS011;7545;52.092;7.006;2024-03-23T09:27:01;8.82;;;2.30;;
14907;SDS011;7545;52.092;7.006;2024-03-23T09:29:28;7.50;;;2.38;;
14907;SDS011;7545;52.092;7.006;2024-03-23T09:31:53;6.32;;;1.95;;
14907;SDS011;7545;52.092;7.006;2024-03-23T09:34:19;5.23;;;2.10;;
14907;SDS011;7545;52.092;7.006;2024-03-23T09:36:44;7.70;;;2.97;;
14907;SDS011;7545;52.092;7.006;2024-03-23T09:39:10;8.27;;;2.58;;
14907;SDS011;7545;52.092;7.006;2024-03-23T09:41:36;7.53;;;2.42;;
14907;SDS011;7545;52.092;7.006;2024-03-23T09:44:02;7.73;;;2.93;;
14907;SDS011;7545;52.092;7.006;2024-03-23T09:46:27;10.63;;;2.40;;
14907;SDS011;7545;52.092;7.006;2024-03-23T09:48:59;8.88;;;2.28;;
14907;SDS011;7545;52.092;7.006;2024-03-23T09:51:26;7.63;;;3.20;;
14907;SDS011;7545;52.092;7.006;2024-03-23T09:53:51;7.93;;;1.92;;
14907;SDS011;7545;52.092;7.006;2024-03-23T09:56:18;6.80;;;1.83;;
14907;SDS011;7545;52.092;7.006;2024-03-23T09:58:47;8.25;;;2.33;;
14907;SDS011;7545;52.092;7.006;2024-03-23T10:01:25;4.95;;;1.55;;
14907;SDS011;7545;52.092;7.006;2024-03-23T10:03:50;7.93;;;1.70;;
14907;SDS011;7545;52.092;7.006;2024-03-23T10:06:16;7.10;;;1.52;;
14907;SDS011;7545;52.092;7.006;2024-03-23T10:08:47;3.17;;;1.50;;
14907;SDS011;7545;52.092;7.006;2024-03-23T10:11:16;9.15;;;1.30;;
14907;SDS011;7545;52.092;7.006;2024-03-23T10:13:42;4.13;;;2.13;;
14907;SDS011;7545;52.092;7.006;2024-03-23T10:16:09;6.43;;;1.95;;
14907;SDS011;7545;52.092;7.006;2024-03-23T10:18:38;7.07;;;1.90;;
14907;SDS011;7545;52.092;7.006;2024-03-23T10:23:36;8.00;;;1.50;;
14907;SDS011;7545;52.092;7.006;2024-03-23T10:28:55;8.35;;;1.80;;
14907;SDS011;7545;52.092;7.006;2024-03-23T10:31:36;4.00;;;1.63;;
14907;SDS011;7545;52.092;7.006;2024-03-23T10:34:02;4.22;;;1.23;;
14907;SDS011;7545;52.092;7.006;2024-03-23T10:36:28;3.00;;;1.20;;
14907;SDS011;7545;52.092;7.006;2024-03-23T10:38:55;6.88;;;1.83;;
14907;SDS011;7545;52.092;7.006;2024-03-23T10:41:23;1.92;;;0.75;;
14907;SDS011;7545;52.092;7.006;2024-03-23T10:43:52;2.80;;;1.17;;
14907;SDS011;7545;52.092;7.006;2024-03-23T10:46:23;2.35;;;1.13;;
14907;SDS011;7545;52.092;7.006;2024-03-23T10:48:49;4.90;;;1.27;;
14907;SDS011;7545;52.092;7.006;2024-03-23T10:51:14;3.95;;;1.17;;
14907;SDS011;7545;52.092;7.006;2024-03-23T10:53:40;4.43;;;0.85;;
14907;SDS011;7545;52.092;7.006;2024-03-23T10:56:06;4.15;;;1.15;;
14907;SDS011;7545;52.092;7.006;2024-03-23T10:58:42;5.78;;;1.20;;
14907;SDS011;7545;52.092;7.006;2024-03-23T11:01:11;4.95;;;1.10;;
14907;SDS011;7545;52.092;7.006;2024-03-23T11:03:38;4.63;;;1.10;;
14907;SDS011;7545;52.092;7.006;2024-03-23T11:06:04;3.53;;;1.25;;
14907;SDS011;7545;52.092;7.006;2024-03-23T11:08:31;4.68;;;1.20;;
14907;SDS011;7545;52.092;7.006;2024-03-23T11:11:11;5.15;;;1.77;;
14907;SDS011;7545;52.092;7.006;2024-03-23T11:13:48;3.67;;;1.13;;
14907;SDS011;7545;52.092;7.006;2024-03-23T11:16:16;3.03;;;1.20;;
14907;SDS011;7545;52.092;7.006;2024-03-23T11:18:42;5.00;;;2.35;;
14907;SDS011;7545;52.092;7.006;2024-03-23T11:21:09;3.28;;;1.10;;
14907;SDS011;7545;52.092;7.006;2024-03-23T11:23:35;9.30;;;1.67;;
14907;SDS011;7545;52.092;7.006;2024-03-23T11:26:01;6.28;;;1.15;;
14907;SDS011;7545;52.092;7.006;2024-03-23T11:28:27;5.50;;;1.83;;
14907;SDS011;7545;52.092;7.006;2024-03-23T11:30:53;5.90;;;1.30;;
14907;SDS011;7545;52.092;7.006;2024-03-23T11:33:18;1.98;;;0.82;;
14907;SDS011;7545;52.092;7.006;2024-03-23T11:35:44;4.07;;;1.77;;
14907;SDS011;7545;52.092;7.006;2024-03-23T11:40:36;3.05;;;1.08;;
14907;SDS011;7545;52.092;7.006;2024-03-23T11:43:13;4.53;;;0.90;;
14907;SDS011;7545;52.092;7.006;2024-03-23T11:45:40;0.98;;;0.50;;
14907;SDS011;7545;52.092;7.006;2024-03-23T11:48:11;2.63;;;0.88;;
14907;SDS011;7545;52.092;7.006;2024-03-23T11:50:41;1.60;;;1.02;;
14907;SDS011;7545;52.092;7.006;2024-03-23T11:58:17;3.92;;;1.13;;
14907;SDS011;7545;52.092;7.006;2024-03-23T12:03:25;3.47;;;1.10;;
14907;SDS011;7545;52.092;7.006;2024-03-23T12:05:53;3.90;;;1.27;;
14907;SDS011;7545;52.092;7.006;2024-03-23T12:11:12;3.53;;;0.90;;
14907;SDS011;7545;52.092;7.006;2024-03-23T12:13:40;3.63;;;1.10;;
14907;SDS011;7545;52.092;7.006;2024-03-23T12:18:40;2.50;;;1.17;;
14907;SDS011;7545;52.092;7.006;2024-03-23T12:21:07;6.90;;;1.92;;
14907;SDS011;7545;52.092;7.006;2024-03-23T12:23:33;8.25;;;1.70;;
14907;SDS011;7545;52.092;7.006;2024-03-23T12:26:00;7.15;;;1.50;;
14907;SDS011;7545;52.092;7.006;2024-03-23T12:28:26;3.47;;;1.20;;
14907;SDS011;7545;52.092;7.006;2024-03-23T12:30:52;4.07;;;1.40;;
14907;SDS011;7545;52.092;7.006;2024-03-23T12:33:18;3.00;;;1.33;;
14907;SDS011;7545;52.092;7.006;2024-03-23T12:35:44;5.28;;;1.55;;
14907;SDS011;7545;52.092;7.006;2024-03-23T12:38:10;3.78;;;0.98;;
14907;SDS011;7545;52.092;7.006;2024-03-23T12:40:35;3.10;;;0.93;;
14907;SDS011;7545;52.092;7.006;2024-03-23T12:43:01;4.03;;;1.65;;
14907;SDS011;7545;52.092;7.006;2024-03-23T12:45:27;0.77;;;0.45;;
14907;SDS011;7545;52.092;7.006;2024-03-23T12:47:52;2.35;;;0.68;;
14907;SDS011;7545;52.092;7.006;2024-03-23T12:50:18;0.98;;;0.40;;
14907;SDS011;7545;52.092;7.006;2024-03-23T12:52:45;1.83;;;0.70;;
14907;SDS011;7545;52.092;7.006;2024-03-23T12:55:10;2.55;;;1.05;;
14907;SDS011;7545;52.092;7.006;2024-03-23T12:57:36;1.63;;;0.55;;
14907;SDS011;7545;52.092;7.006;2024-03-23T13:00:02;4.03;;;1.92;;
14907;SDS011;7545;52.092;7.006;2024-03-23T13:02:29;2.40;;;1.00;;
14907;SDS011;7545;52.092;7.006;2024-03-23T13:04:54;2.92;;;1.58;;
14907;SDS011;7545;52.092;7.006;2024-03-23T13:07:21;3.47;;;1.00;;
14907;SDS011;7545;52.092;7.006;2024-03-23T13:09:50;1.10;;;0.77;;
14907;SDS011;7545;52.092;7.006;2024-03-23T13:12:16;3.05;;;1.00;;
14907;SDS011;7545;52.092;7.006;2024-03-23T13:14:43;2.47;;;1.30;;
14907;SDS011;7545;52.092;7.006;2024-03-23T13:17:09;3.78;;;1.00;;
14907;SDS011;7545;52.092;7.006;2024-03-23T13:19:35;3.83;;;1.60;;
14907;SDS011;7545;52.092;7.006;2024-03-23T13:22:00;3.47;;;0.85;;
14907;SDS011;7545;52.092;7.006;2024-03-23T13:24:27;3.28;;;0.80;;
14907;SDS011;7545;52.092;7.006;2024-03-23T13:26:53;4.65;;;1.05;;
14907;SDS011;7545;52.092;7.006;2024-03-23T13:29:20;4.18;;;0.75;;
14907;SDS011;7545;52.092;7.006;2024-03-23T13:31:46;2.80;;;0.70;;
14907;SDS011;7545;52.092;7.006;2024-03-23T13:34:12;4.35;;;1.13;;
14907;SDS011;7545;52.092;7.006;2024-03-23T13:36:40;2.13;;;1.00;;
14907;SDS011;7545;52.092;7.006;2024-03-23T13:39:06;3.35;;;0.90;;
14907;SDS011;7545;52.092;7.006;2024-03-23T13:41:36;0.88;;;0.45;;
14907;SDS011;7545;52.092;7.006;2024-03-23T13:44:03;3.83;;;2.97;;
14907;SDS011;7545;52.092;7.006;2024-03-23T13:46:29;1.80;;;0.90;;
14907;SDS011;7545;52.092;7.006;2024-03-23T13:48:54;3.40;;;0.98;;
14907;SDS011;7545;52.092;7.006;2024-03-23T13:51:23;4.10;;;1.02;;
14907;SDS011;7545;52.092;7.006;2024-03-23T13:53:49;1.85;;;0.90;;
14907;SDS011;7545;52.092;7.006;2024-03-23T13:56:15;4.43;;;1.30;;
14907;SDS011;7545;52.092;7.006;2024-03-23T13:58:41;3.10;;;1.00;;
14907;SDS011;7545;52.092;7.006;2024-03-23T14:01:10;2.65;;;0.90;;
14907;SDS011;7545;52.092;7.006;2024-03-23T14:03:36;4.18;;;1.17;;
14907;SDS011;7545;52.092;7.006;2024-03-23T14:06:01;5.22;;;1.50;;
14907;SDS011;7545;52.092;7.006;2024-03-23T14:08:28;5.53;;;1.00;;
14907;SDS011;7545;52.092;7.006;2024-03-23T14:10:53;5.15;;;1.75;;
14907;SDS011;7545;52.092;7.006;2024-03-23T14:13:19;7.30;;;1.27;;
14907;SDS011;7545;52.092;7.006;2024-03-23T14:15:45;2.60;;;1.08;;
14907;SDS011;7545;52.092;7.006;2024-03-23T14:18:10;6.18;;;1.20;;
14907;SDS011;7545;52.092;7.006;2024-03-23T14:20:36;4.32;;;1.95;;
14907;SDS011;7545;52.092;7.006;2024-03-23T14:23:01;4.03;;;1.45;;
14907;SDS011;7545;52.092;7.006;2024-03-23T14:25:27;7.72;;;1.50;;
14907;SDS011;7545;52.092;7.006;2024-03-23T14:27:54;3.88;;;1.10;;
14907;SDS011;7545;52.092;7.006;2024-03-23T14:30:19;9.55;;;1.60;;
14907;SDS011;7545;52.092;7.006;2024-03-23T14:32:45;3.90;;;1.10;;
14907;SDS011;7545;52.092;7.006;2024-03-23T14:35:11;4.03;;;1.23;;
14907;SDS011;7545;52.092;7.006;2024-03-23T14:37:37;6.35;;;1.88;;
14907;SDS011;7545;52.092;7.006;2024-03-23T14:40:03;3.28;;;1.17;;
14907;SDS011;7545;52.092;7.006;2024-03-23T14:42:29;3.17;;;1.25;;
14907;SDS011;7545;52.092;7.006;2024-03-23T14:44:57;6.00;;;1.38;;
14907;SDS011;7545;52.092;7.006;2024-03-23T14:47:23;4.53;;;1.10;;
14907;SDS011;7545;52.092;7.006;2024-03-23T14:49:48;3.17;;;1.55;;
14907;SDS011;7545;52.092;7.006;2024-03-23T14:52:15;4.53;;;1.15;;
14907;SDS011;7545;52.092;7.006;2024-03-23T14:54:41;3.47;;;1.30;;
14907;SDS011;7545;52.092;7.006;2024-03-23T14:57:07;2.78;;;1.23;;
14907;SDS011;7545;52.092;7.006;2024-03-23T14:59:34;4.22;;;1.30;;
14907;SDS011;7545;52.092;7.006;2024-03-23T15:02:00;3.30;;;1.10;;
14907;SDS011;7545;52.092;7.006;2024-03-23T15:04:25;4.57;;;1.42;;
14907;SDS011;7545;52.092;7.006;2024-03-23T15:06:51;2.67;;;1.40;;
14907;SDS011;7545;52.092;7.006;2024-03-23T15:09:16;4.00;;;0.88;;
14907;SDS011;7545;52.092;7.006;2024-03-23T15:11:43;3.80;;;1.00;;
14907;SDS011;7545;52.092;7.006;2024-03-23T15:14:08;5.63;;;1.20;;
14907;SDS011;7545;52.092;7.006;2024-03-23T15:16:35;6.88;;;1.00;;
14907;SDS011;7545;52.092;7.006;2024-03-23T15:19:01;2.33;;;1.58;;
14907;SDS011;7545;52.092;7.006;2024-03-23T15:21:27;3.80;;;1.23;;
14907;SDS011;7545;52.092;7.006;2024-03-23T15:23:53;4.07;;;1.23;;
14907;SDS011;7545;52.092;7.006;2024-03-23T15:26:18;2.67;;;1.00;;
14907;SDS011;7545;52.092;7.006;2024-03-23T15:28:47;3.88;;;1.25;;
14907;SDS011;7545;52.092;7.006;2024-03-23T15:31:22;2.53;;;1.00;;
14907;SDS011;7545;52.092;7.006;2024-03-23T15:33:48;8.88;;;1.65;;
14907;SDS011;7545;52.092;7.006;2024-03-23T15:36:14;3.33;;;1.25;;
14907;SDS011;7545;52.092;7.006;2024-03-23T15:38:40;6.47;;;1.30;;
14907;SDS011;7545;52.092;7.006;2024-03-23T15:41:05;4.40;;;1.40;;
14907;SDS011;7545;52.092;7.006;2024-03-23T15:43:31;3.30;;;0.85;;
14907;SDS011;7545;52.092;7.006;2024-03-23T15:45:57;3.35;;;1.20;;
14907;SDS011;7545;52.092;7.006;2024-03-23T15:48:27;4.88;;;1.30;;
14907;SDS011;7545;52.092;7.006;2024-03-23T15:50:53;4.32;;;1.35;;
14907;SDS011;7545;52.092;7.006;2024-03-23T15:53:20;5.43;;;1.35;;
14907;SDS011;7545;52.092;7.006;2024-03-23T15:58:24;3.80;;;0.95;;
14907;SDS011;7545;52.092;7.006;2024-03-23T16:00:54;4.55;;;0.93;;
14907;SDS011;7545;52.092;7.006;2024-03-23T16:03:20;6.03;;;1.73;;
14907;SDS011;7545;52.092;7.006;2024-03-23T16:05:52;2.05;;;1.20;;
14907;SDS011;7545;52.092;7.006;2024-03-23T16:08:21;3.92;;;1.40;;